createdAt,value
2018-12-26T00:00:51.675Z,28.13
2018-12-26T00:03:20.142Z,29.13
2018-12-26T00:05:48.661Z,30.73
2018-12-26T00:08:17.337Z,31.97
2018-12-26T00:10:45.830Z,29.10
2018-12-26T00:13:14.392Z,28.73
2018-12-26T00:15:43.006Z,28.47
2018-12-26T00:18:11.652Z,29.20
2018-12-26T00:20:40.124Z,29.33
2018-12-26T00:23:08.601Z,29.23
2018-12-26T00:25:37.111Z,31.97
2018-12-26T00:28:05.615Z,30.13
2018-12-26T00:30:34.212Z,28.63
2018-12-26T00:33:02.730Z,29.43
2018-12-26T00:35:31.259Z,31.50
2018-12-26T00:37:59.763Z,30.80
2018-12-26T00:40:28.318Z,29.10
2018-12-26T00:42:56.877Z,30.00
2018-12-26T00:45:25.380Z,31.97
2018-12-26T00:47:53.879Z,29.20
2018-12-26T00:50:22.368Z,31.17
2018-12-26T00:52:50.922Z,29.77
2018-12-26T00:55:19.391Z,33.27
2018-12-26T00:57:47.936Z,29.77
2018-12-26T01:00:16.401Z,26.73
2018-12-26T01:02:45.160Z,30.10
2018-12-26T01:05:13.653Z,30.10
2018-12-26T01:07:42.179Z,28.20
2018-12-26T01:10:10.679Z,29.00
2018-12-26T01:12:39.248Z,33.07
2018-12-26T01:15:07.876Z,28.87
2018-12-26T01:17:36.345Z,29.60
2018-12-26T01:20:05.812Z,30.53
2018-12-26T01:22:34.363Z,30.83
2018-12-26T01:25:02.873Z,33.37
2018-12-26T01:27:31.339Z,30.87
2018-12-26T01:29:59.903Z,30.07
2018-12-26T01:32:28.404Z,30.87
2018-12-26T01:34:56.884Z,31.13
2018-12-26T01:37:25.368Z,29.07
2018-12-26T01:39:53.848Z,33.47
2018-12-26T01:42:22.301Z,30.20
2018-12-26T01:44:50.784Z,32.50
2018-12-26T01:47:19.281Z,33.10
2018-12-26T01:49:47.836Z,31.33
2018-12-26T01:52:16.317Z,30.97
2018-12-26T01:54:44.864Z,30.70
2018-12-26T01:57:13.331Z,33.47
2018-12-26T01:59:41.802Z,31.23
2018-12-26T02:02:10.281Z,35.43
2018-12-26T02:04:38.763Z,29.73
2018-12-26T02:07:07.221Z,33.43
2018-12-26T02:09:35.701Z,33.60
2018-12-26T02:12:04.247Z,29.20
2018-12-26T02:14:32.717Z,33.07
2018-12-26T02:17:01.238Z,29.77
2018-12-26T02:19:29.750Z,32.03
2018-12-26T02:21:58.239Z,31.33
2018-12-26T02:24:26.815Z,34.27
2018-12-26T02:26:55.299Z,31.90
2018-12-26T02:29:23.775Z,32.23
2018-12-26T02:31:52.257Z,31.77
2018-12-26T02:34:20.733Z,30.10
2018-12-26T02:36:49.204Z,32.27
2018-12-26T02:39:17.703Z,34.93
2018-12-26T02:41:46.247Z,32.03
2018-12-26T02:44:14.730Z,28.97
2018-12-26T02:46:43.263Z,33.00
2018-12-26T02:49:11.743Z,34.33
2018-12-26T02:51:40.215Z,31.70
2018-12-26T02:54:08.750Z,33.97
2018-12-26T02:56:46.193Z,33.20
2018-12-26T02:59:07.530Z,30.17
2018-12-26T03:01:36.014Z,34.07
2018-12-26T03:04:04.555Z,34.53
2018-12-26T03:06:33.583Z,34.13
2018-12-26T03:09:02.096Z,33.97
2018-12-26T03:11:30.629Z,32.03
2018-12-26T03:13:59.826Z,30.77
2018-12-26T03:16:28.388Z,32.47
2018-12-26T03:18:56.927Z,30.97
2018-12-26T03:21:25.453Z,32.13
2018-12-26T03:23:54.096Z,32.33
2018-12-26T03:26:22.569Z,27.97
2018-12-26T03:28:51.060Z,31.07
2018-12-26T03:31:19.576Z,31.00
2018-12-26T03:33:48.272Z,31.00
2018-12-26T03:36:16.921Z,30.63
2018-12-26T03:38:46.566Z,27.83
2018-12-26T03:41:15.302Z,28.60
2018-12-26T03:43:44.192Z,28.87
2018-12-26T03:46:14.243Z,29.57
2018-12-26T03:48:42.865Z,32.47
2018-12-26T03:51:11.606Z,31.07
2018-12-26T03:53:40.466Z,31.70
2018-12-26T03:56:09.124Z,30.53
2018-12-26T03:58:38.020Z,29.10
2018-12-26T04:01:06.721Z,30.07
2018-12-26T04:03:35.269Z,29.97
2018-12-26T04:06:03.796Z,30.00
2018-12-26T04:08:32.287Z,31.07
2018-12-26T04:11:01.133Z,27.40
2018-12-26T04:13:29.959Z,33.43
2018-12-26T04:15:58.721Z,29.53
2018-12-26T04:18:27.573Z,31.90
2018-12-26T04:20:56.400Z,32.63
2018-12-26T04:23:25.065Z,31.13
2018-12-26T04:25:53.722Z,31.63
2018-12-26T04:28:23.558Z,28.80
2018-12-26T04:30:52.210Z,31.07
2018-12-26T04:33:21.076Z,30.07
2018-12-26T04:35:49.964Z,28.33
2018-12-26T04:38:18.714Z,30.03
2018-12-26T04:40:48.854Z,29.60
2018-12-26T04:43:17.563Z,28.77
2018-12-26T04:45:46.264Z,29.93
2018-12-26T04:48:15.155Z,31.03
2018-12-26T04:50:43.780Z,30.60
2018-12-26T04:53:12.576Z,29.40
2018-12-26T04:55:41.136Z,32.70
2018-12-26T04:58:09.705Z,27.80
2018-12-26T05:00:38.362Z,31.20
2018-12-26T05:03:06.870Z,28.33
2018-12-26T05:05:35.636Z,27.90
2018-12-26T05:08:04.155Z,28.70
2018-12-26T05:10:32.704Z,29.67
2018-12-26T05:13:01.294Z,28.53
2018-12-26T05:15:29.837Z,28.87
2018-12-26T05:18:01.190Z,32.53
2018-12-26T05:20:29.832Z,32.03
2018-12-26T05:22:58.388Z,32.10
2018-12-26T05:25:26.957Z,30.93
2018-12-26T05:27:55.522Z,33.00
2018-12-26T05:30:24.037Z,34.97
2018-12-26T05:32:52.579Z,33.90
2018-12-26T05:35:21.039Z,32.63
2018-12-26T05:37:49.559Z,29.97
2018-12-26T05:40:18.033Z,32.73
2018-12-26T05:42:46.620Z,32.30
2018-12-26T05:45:16.057Z,27.90
2018-12-26T05:47:44.758Z,29.97
2018-12-26T05:50:13.329Z,32.97
2018-12-26T05:52:41.933Z,30.00
2018-12-26T05:55:10.401Z,32.87
2018-12-26T05:57:42.764Z,31.10
2018-12-26T06:00:09.088Z,29.10
2018-12-26T06:02:37.544Z,31.23
2018-12-26T06:05:06.111Z,32.10
2018-12-26T06:07:34.663Z,32.17
2018-12-26T06:10:03.388Z,30.80
2018-12-26T06:12:31.853Z,31.43
2018-12-26T06:15:00.299Z,35.10
2018-12-26T06:17:28.797Z,30.03
2018-12-26T06:19:57.340Z,35.13
2018-12-26T06:22:25.822Z,31.87
2018-12-26T06:24:54.362Z,33.00
2018-12-26T06:27:22.846Z,35.60
2018-12-26T06:29:51.390Z,36.80
2018-12-26T06:32:19.877Z,31.63
2018-12-26T06:34:48.386Z,33.77
2018-12-26T06:37:16.926Z,30.73
2018-12-26T06:39:45.423Z,35.70
2018-12-26T06:42:13.924Z,32.80
2018-12-26T06:44:42.462Z,36.13
2018-12-26T06:47:10.954Z,33.07
2018-12-26T06:49:39.491Z,35.43
2018-12-26T06:52:08.055Z,32.70
2018-12-26T06:54:36.649Z,29.83
2018-12-26T06:57:05.134Z,30.10
2018-12-26T06:59:33.607Z,30.97
2018-12-26T07:02:02.111Z,31.30
2018-12-26T07:04:30.650Z,33.27
2018-12-26T07:06:59.180Z,30.27
2018-12-26T07:09:27.654Z,35.27
2018-12-26T07:11:56.107Z,31.57
2018-12-26T07:14:24.648Z,31.00
2018-12-26T07:16:53.191Z,29.17
2018-12-26T07:19:21.661Z,33.47
2018-12-26T07:21:50.123Z,30.63
2018-12-26T07:24:18.604Z,29.23
2018-12-26T07:26:47.084Z,27.53
2018-12-26T07:29:15.592Z,30.97
2018-12-26T07:31:44.130Z,29.53
2018-12-26T07:34:12.769Z,31.60
2018-12-26T07:36:41.272Z,27.77
2018-12-26T07:39:09.796Z,31.80
2018-12-26T07:41:38.367Z,30.10
2018-12-26T07:44:06.949Z,28.47
2018-12-26T07:46:35.482Z,27.40
2018-12-26T07:49:04.048Z,29.07
2018-12-26T07:51:32.532Z,34.37
2018-12-26T07:54:01.090Z,28.27
2018-12-26T07:56:29.597Z,32.70
2018-12-26T07:58:58.051Z,29.37
2018-12-26T08:01:26.613Z,27.23
2018-12-26T08:03:55.152Z,29.50
2018-12-26T08:06:23.646Z,32.37
2018-12-26T08:08:52.260Z,28.20
2018-12-26T08:11:20.824Z,26.40
2018-12-26T08:13:49.408Z,29.33
2018-12-26T08:16:17.896Z,27.07
2018-12-26T08:18:46.431Z,27.23
2018-12-26T08:21:17.013Z,29.20
2018-12-26T08:23:45.495Z,29.83
2018-12-26T08:26:14.039Z,26.37
2018-12-26T08:28:42.607Z,28.63
2018-12-26T08:31:11.170Z,27.57
2018-12-26T08:33:39.703Z,27.33
2018-12-26T08:36:08.288Z,28.43
2018-12-26T08:38:36.876Z,28.33
2018-12-26T08:41:05.440Z,30.33
2018-12-26T08:43:33.915Z,30.03
2018-12-26T08:46:02.446Z,28.17
2018-12-26T08:48:31.052Z,27.17
2018-12-26T08:50:59.688Z,28.13
2018-12-26T08:53:28.163Z,30.70
2018-12-26T08:55:56.638Z,28.70
2018-12-26T08:58:25.113Z,33.50
2018-12-26T09:00:53.579Z,33.17
2018-12-26T09:03:22.058Z,33.13
2018-12-26T09:05:50.579Z,27.60
2018-12-26T09:08:19.056Z,32.50
2018-12-26T09:10:47.611Z,30.67
2018-12-26T09:13:16.109Z,30.40
2018-12-26T09:15:44.736Z,34.77
2018-12-26T09:18:13.367Z,32.43
2018-12-26T09:20:41.893Z,31.50
2018-12-26T09:23:10.366Z,28.63
2018-12-26T09:25:39.124Z,27.70
2018-12-26T09:28:07.619Z,29.37
2018-12-26T09:30:36.157Z,33.23
2018-12-26T09:33:04.709Z,30.03
2018-12-26T09:35:33.196Z,28.17
2018-12-26T09:38:01.658Z,29.87
2018-12-26T09:40:30.202Z,28.57
2018-12-26T09:42:58.768Z,27.97
2018-12-26T09:45:27.331Z,31.93
2018-12-26T09:47:55.794Z,30.13
2018-12-26T09:50:24.307Z,26.97
2018-12-26T09:52:52.851Z,29.33
2018-12-26T09:55:21.332Z,27.90
2018-12-26T09:57:49.846Z,28.00
2018-12-26T10:00:18.420Z,31.27
2018-12-26T10:02:46.988Z,29.83
2018-12-26T10:05:15.484Z,30.07
2018-12-26T10:07:44.016Z,29.07
2018-12-26T10:10:12.555Z,30.07
2018-12-26T10:12:41.009Z,28.60
2018-12-26T10:15:09.684Z,28.80
2018-12-26T10:17:38.244Z,34.97
2018-12-26T10:20:07.214Z,32.63
2018-12-26T10:22:35.822Z,26.23
2018-12-26T10:25:04.633Z,31.03
2018-12-26T10:27:33.268Z,29.73
2018-12-26T10:30:01.836Z,33.20
2018-12-26T10:32:30.375Z,31.03
2018-12-26T10:34:58.897Z,31.07
2018-12-26T10:37:27.385Z,27.50
2018-12-26T10:39:55.885Z,34.60
2018-12-26T10:42:24.574Z,27.87
2018-12-26T10:44:53.139Z,32.70
2018-12-26T10:47:21.665Z,32.47
2018-12-26T10:49:50.223Z,30.33
2018-12-26T10:52:18.717Z,28.90
2018-12-26T10:54:47.490Z,28.63
2018-12-26T10:57:16.111Z,29.30
2018-12-26T10:59:44.606Z,32.03
2018-12-26T11:02:13.106Z,30.27
2018-12-26T11:04:41.600Z,28.17
2018-12-26T11:07:10.194Z,32.10
2018-12-26T11:09:38.755Z,28.27
2018-12-26T11:12:07.319Z,27.70
2018-12-26T11:14:35.979Z,25.13
2018-12-26T11:17:04.553Z,39.73
2018-12-26T11:19:33.190Z,27.30
2018-12-26T11:22:01.864Z,27.77
2018-12-26T11:24:30.438Z,27.90
2018-12-26T11:26:58.916Z,31.80
2018-12-26T11:29:27.761Z,32.53
2018-12-26T11:31:56.372Z,29.33
2018-12-26T11:34:24.871Z,23.60
2018-12-26T11:36:53.526Z,27.13
2018-12-26T11:39:22.207Z,25.57
2018-12-26T11:41:50.859Z,27.00
2018-12-26T11:44:19.419Z,25.53
2018-12-26T11:46:47.941Z,27.37
2018-12-26T11:49:16.663Z,26.83
2018-12-26T11:51:45.178Z,26.37
2018-12-26T11:54:13.668Z,26.57
2018-12-26T11:56:42.151Z,27.53
2018-12-26T11:59:10.802Z,28.23
2018-12-26T12:01:39.479Z,28.67
2018-12-26T12:04:08.124Z,22.03
2018-12-26T12:06:36.820Z,22.23
2018-12-26T12:09:06.889Z,24.47
2018-12-26T12:11:35.593Z,26.07
2018-12-26T12:14:04.310Z,23.07
2018-12-26T12:16:33.000Z,27.13
2018-12-26T12:19:01.570Z,23.23
2018-12-26T12:21:30.164Z,24.23
2018-12-26T12:23:58.670Z,24.97
2018-12-26T12:26:28.357Z,21.83
2018-12-26T12:28:57.048Z,24.50
2018-12-26T12:31:25.673Z,25.37
2018-12-26T12:33:54.294Z,22.80
2018-12-26T12:36:22.984Z,22.33
2018-12-26T12:38:51.522Z,25.77
2018-12-26T12:41:20.202Z,25.20
2018-12-26T12:43:49.046Z,25.17
2018-12-26T12:46:17.598Z,23.53
2018-12-26T12:48:46.205Z,21.07
2018-12-26T12:51:14.699Z,24.20
2018-12-26T12:53:43.286Z,24.93
2018-12-26T12:56:12.314Z,23.27
2018-12-26T12:58:41.063Z,23.40
2018-12-26T13:01:09.612Z,20.80
2018-12-26T13:03:46.354Z,23.47
2018-12-26T13:06:08.694Z,21.20
2018-12-26T13:08:37.235Z,23.43
2018-12-26T13:11:05.751Z,21.37
2018-12-26T13:13:34.252Z,21.67
2018-12-26T13:16:02.747Z,20.33
2018-12-26T13:18:31.294Z,22.13
2018-12-26T13:20:59.819Z,20.43
2018-12-26T13:23:28.373Z,23.60
2018-12-26T13:25:56.931Z,21.47
2018-12-26T13:28:25.500Z,24.33
2018-12-26T13:30:54.021Z,20.03
2018-12-26T13:33:22.539Z,21.70
2018-12-26T13:35:51.073Z,23.07
2018-12-26T13:38:19.634Z,22.30
2018-12-26T13:40:48.284Z,21.17
2018-12-26T13:43:16.872Z,20.23
2018-12-26T13:45:46.973Z,20.93
2018-12-26T13:48:15.568Z,22.00
2018-12-26T13:50:44.171Z,21.07
2018-12-26T13:53:12.649Z,22.23
2018-12-26T13:55:41.104Z,20.90
2018-12-26T13:58:09.625Z,21.53
2018-12-26T14:00:38.169Z,20.00
2018-12-26T14:03:06.650Z,19.93
2018-12-26T14:05:35.234Z,22.00
2018-12-26T14:08:04.734Z,19.93
2018-12-26T14:10:33.217Z,20.60
2018-12-26T14:13:01.683Z,20.63
2018-12-26T14:15:30.169Z,21.20
2018-12-26T14:17:58.752Z,37.37
2018-12-26T14:20:27.231Z,21.37
2018-12-26T14:22:55.756Z,21.33
2018-12-26T14:25:24.328Z,23.33
2018-12-26T14:27:52.889Z,21.87
2018-12-26T14:30:21.464Z,23.10
2018-12-26T14:32:49.954Z,22.13
2018-12-26T14:35:18.609Z,26.93
2018-12-26T14:37:47.170Z,20.90
2018-12-26T14:40:16.161Z,24.97
2018-12-26T14:42:44.801Z,23.27
2018-12-26T14:45:13.364Z,25.60
2018-12-26T14:47:41.897Z,24.70
2018-12-26T14:50:10.595Z,23.57
2018-12-26T14:52:39.117Z,23.67
2018-12-26T14:55:07.741Z,21.97
2018-12-26T14:57:36.269Z,24.67
2018-12-26T15:00:05.403Z,23.83
2018-12-26T15:02:34.945Z,21.77
2018-12-26T15:05:03.516Z,24.87
2018-12-26T15:07:32.087Z,22.80
2018-12-26T15:10:00.660Z,23.17
2018-12-26T15:12:29.166Z,22.77
2018-12-26T15:14:57.660Z,22.93
2018-12-26T15:17:26.229Z,21.43
2018-12-26T15:19:54.731Z,18.07
2018-12-26T15:22:23.266Z,21.50
2018-12-26T15:24:51.938Z,20.30
2018-12-26T15:27:20.481Z,18.13
2018-12-26T15:29:49.038Z,17.73
2018-12-26T15:32:17.509Z,17.00
2018-12-26T15:34:46.006Z,18.57
2018-12-26T15:37:14.572Z,17.30
2018-12-26T15:39:43.103Z,17.23
2018-12-26T15:42:11.577Z,19.43
2018-12-26T15:44:40.107Z,18.67
2018-12-26T15:47:08.655Z,19.20
2018-12-26T15:49:37.154Z,17.53
2018-12-26T15:52:05.709Z,19.93
2018-12-26T15:54:34.232Z,21.00
2018-12-26T15:57:02.797Z,19.37
2018-12-26T15:59:31.375Z,18.30
2018-12-26T16:01:59.933Z,20.53
2018-12-26T16:04:28.372Z,19.83
2018-12-26T16:06:59.665Z,20.63
2018-12-26T16:09:28.164Z,22.37
2018-12-26T16:11:56.628Z,22.60
2018-12-26T16:14:25.128Z,21.10
2018-12-26T16:16:53.603Z,19.10
2018-12-26T16:19:22.091Z,16.90
2018-12-26T16:21:50.587Z,21.73
2018-12-26T16:24:19.233Z,22.23
2018-12-26T16:26:47.784Z,20.70
2018-12-26T16:29:16.369Z,24.97
2018-12-26T16:31:44.826Z,23.70
2018-12-26T16:34:13.300Z,24.83
2018-12-26T16:36:41.870Z,26.43
2018-12-26T16:39:10.372Z,23.87
2018-12-26T16:41:38.915Z,23.00
2018-12-26T16:44:07.411Z,20.93
2018-12-26T16:46:35.905Z,25.57
2018-12-26T16:49:04.526Z,25.93
2018-12-26T16:51:33.016Z,22.67
2018-12-26T16:54:01.562Z,22.47
2018-12-26T16:56:30.067Z,23.67
2018-12-26T16:58:58.572Z,24.93
2018-12-26T17:01:27.060Z,22.27
2018-12-26T17:03:55.544Z,20.77
2018-12-26T17:06:24.118Z,23.23
2018-12-26T17:08:52.696Z,21.00
2018-12-26T17:11:21.191Z,21.90
2018-12-26T17:13:49.833Z,24.73
2018-12-26T17:16:18.378Z,24.40
2018-12-26T17:18:48.439Z,23.23
2018-12-26T17:21:18.424Z,27.43
2018-12-26T17:23:47.223Z,24.10
2018-12-26T17:26:15.840Z,25.77
2018-12-26T17:28:44.381Z,24.43
2018-12-26T17:31:12.879Z,23.93
2018-12-26T17:33:41.530Z,26.23
2018-12-26T17:36:10.144Z,28.83
2018-12-26T17:38:38.666Z,30.13
2018-12-26T17:41:07.236Z,29.07
2018-12-26T17:43:35.724Z,31.93
2018-12-26T17:46:05.231Z,30.77
2018-12-26T17:48:33.717Z,27.90
2018-12-26T17:51:04.533Z,30.43
2018-12-26T17:53:36.115Z,30.40
2018-12-26T17:56:13.232Z,30.23
2018-12-26T17:59:10.723Z,32.73
2018-12-26T18:01:48.468Z,31.30
2018-12-26T18:04:17.015Z,32.97
2018-12-26T18:06:45.486Z,29.87
2018-12-26T18:09:13.970Z,26.47
2018-12-26T18:11:42.537Z,29.07
2018-12-26T18:14:12.494Z,28.63
2018-12-26T18:16:40.994Z,28.43
2018-12-26T18:19:09.612Z,25.87
2018-12-26T18:21:38.096Z,28.27
2018-12-26T18:24:06.735Z,29.73
2018-12-26T18:26:36.214Z,27.27
2018-12-26T18:29:04.827Z,27.60
2018-12-26T18:31:33.393Z,28.23
2018-12-26T18:34:01.873Z,27.03
2018-12-26T18:36:30.344Z,32.10
2018-12-26T18:38:58.838Z,29.43
2018-12-26T18:41:27.342Z,31.57
2018-12-26T18:43:55.860Z,31.30
2018-12-26T18:46:24.345Z,30.37
2018-12-26T18:48:52.941Z,28.27
2018-12-26T18:51:21.521Z,31.10
2018-12-26T18:53:50.096Z,29.20
2018-12-26T18:56:18.615Z,32.40
2018-12-26T18:58:47.178Z,29.33
2018-12-26T19:01:15.832Z,28.77
2018-12-26T19:03:44.322Z,29.90
2018-12-26T19:06:12.921Z,34.47
2018-12-26T19:08:42.086Z,35.53
2018-12-26T19:11:10.780Z,29.93
2018-12-26T19:13:39.302Z,30.30
2018-12-26T19:16:07.790Z,29.73
2018-12-26T19:18:36.253Z,27.83
2018-12-26T19:21:04.779Z,27.23
2018-12-26T19:23:33.251Z,31.10
2018-12-26T19:26:01.802Z,30.40
2018-12-26T19:28:30.408Z,33.43
2018-12-26T19:30:58.942Z,31.23
2018-12-26T19:33:29.685Z,29.03
2018-12-26T19:35:57.688Z,29.13
2018-12-26T19:38:26.187Z,31.23
2018-12-26T19:40:54.662Z,31.67
2018-12-26T19:43:23.140Z,28.23
2018-12-26T19:45:51.709Z,29.30
2018-12-26T19:48:20.206Z,29.27
2018-12-26T19:50:48.728Z,28.47
2018-12-26T19:53:17.277Z,28.30
2018-12-26T19:55:45.758Z,33.53
2018-12-26T19:58:14.324Z,30.63
2018-12-26T20:00:42.771Z,32.70
2018-12-26T20:03:11.294Z,32.37
2018-12-26T20:05:39.838Z,28.83
2018-12-26T20:08:08.316Z,28.03
2018-12-26T20:10:36.862Z,29.10
2018-12-26T20:13:05.402Z,25.90
2018-12-26T20:15:33.995Z,26.90
2018-12-26T20:18:02.498Z,33.77
2018-12-26T20:20:30.985Z,27.93
2018-12-26T20:22:59.558Z,30.03
2018-12-26T20:25:28.087Z,26.67
2018-12-26T20:27:56.546Z,32.23
2018-12-26T20:30:25.188Z,33.57
2018-12-26T20:32:53.652Z,31.27
2018-12-26T20:35:22.267Z,29.17
2018-12-26T20:37:50.749Z,28.33
2018-12-26T20:40:19.244Z,32.00
2018-12-26T20:42:47.711Z,31.67
2018-12-26T20:45:16.174Z,31.40
2018-12-26T20:47:44.672Z,30.97
2018-12-26T20:50:13.182Z,29.33
2018-12-26T20:52:41.729Z,29.30
2018-12-26T20:55:10.284Z,30.10
2018-12-26T20:57:38.748Z,31.63
2018-12-26T21:00:09.384Z,30.40
2018-12-26T21:02:38.002Z,35.20
2018-12-26T21:05:07.637Z,30.50
2018-12-26T21:07:36.132Z,28.93
2018-12-26T21:10:07.016Z,30.87
2018-12-26T21:12:35.552Z,29.10
2018-12-26T21:15:04.673Z,29.00
2018-12-26T21:17:33.215Z,32.67
2018-12-26T21:20:01.755Z,28.67
2018-12-26T21:22:30.363Z,27.73
2018-12-26T21:24:58.879Z,27.70
2018-12-26T21:27:27.434Z,29.00
2018-12-26T21:29:55.988Z,27.63
2018-12-26T21:32:24.536Z,26.37
2018-12-26T21:34:53.018Z,28.23
2018-12-26T21:37:21.522Z,28.60
2018-12-26T21:39:50.006Z,26.50
2018-12-26T21:42:18.505Z,29.03
2018-12-26T21:44:46.958Z,31.73
2018-12-26T21:47:15.523Z,27.13
2018-12-26T21:49:44.059Z,32.87
2018-12-26T21:52:12.566Z,30.17
2018-12-26T21:54:41.034Z,26.37
2018-12-26T21:57:09.510Z,28.17
2018-12-26T21:59:37.980Z,29.00
2018-12-26T22:02:06.488Z,26.53
2018-12-26T22:04:35.011Z,33.50
2018-12-26T22:07:03.546Z,25.30
2018-12-26T22:09:32.112Z,29.50
2018-12-26T22:12:00.594Z,26.00
2018-12-26T22:14:29.076Z,24.23
2018-12-26T22:16:57.642Z,28.83
2018-12-26T22:19:26.175Z,26.67
2018-12-26T22:21:54.731Z,26.00
2018-12-26T22:24:23.373Z,25.67
2018-12-26T22:26:51.901Z,25.90
2018-12-26T22:29:20.375Z,27.83
2018-12-26T22:31:48.853Z,29.33
2018-12-26T22:34:17.584Z,26.27
2018-12-26T22:36:46.144Z,27.27
2018-12-26T22:39:14.686Z,28.70
2018-12-26T22:41:43.235Z,26.20
2018-12-26T22:44:11.807Z,26.77
2018-12-26T22:46:40.305Z,27.60
2018-12-26T22:49:08.953Z,28.10
2018-12-26T22:51:41.941Z,26.87
2018-12-26T22:54:07.785Z,29.47
2018-12-26T22:56:36.263Z,28.37
2018-12-26T22:59:04.876Z,24.53
2018-12-26T23:01:33.368Z,27.63
2018-12-26T23:04:01.946Z,26.67
2018-12-26T23:06:30.543Z,28.17
2018-12-26T23:08:59.082Z,27.10
2018-12-26T23:11:27.606Z,24.53
2018-12-26T23:13:56.129Z,28.70
2018-12-26T23:16:24.659Z,23.37
2018-12-26T23:18:53.233Z,27.70
2018-12-26T23:21:21.794Z,25.50
2018-12-26T23:23:50.301Z,27.40
2018-12-26T23:26:18.779Z,27.83
2018-12-26T23:28:47.245Z,29.30
2018-12-26T23:31:15.715Z,27.17
2018-12-26T23:33:44.177Z,26.23
2018-12-26T23:36:12.672Z,25.07
2018-12-26T23:38:41.156Z,25.77
2018-12-26T23:41:09.737Z,27.13
2018-12-26T23:43:38.240Z,27.57
2018-12-26T23:46:06.710Z,26.43
2018-12-26T23:48:35.212Z,24.93
2018-12-26T23:51:03.783Z,27.03
2018-12-26T23:53:32.331Z,26.27
2018-12-26T23:56:00.857Z,25.10
2018-12-26T23:58:29.342Z,26.17
